Hlavní strana
METAR-TAF:

METAR-TAF

Letiště :

Letecká základna Aviano

Aviano, Itálie

zeměpisná šířka: 46-02N, zeměpisná délka: 012-36E, výška: 128 m

Aktuální stav počasí

Zpráva byla vytvořena před 28 minutami, v 10:55 UTC
Východoseverovýchodní vítr 4 kt
Teplota 20°C
Vlhkost vzduchu 64%
Tlak 1020 hPa
Viditelnost 10 km a více
Oblačno až skoro zataženo ve výšce 8000 ft

METAR: LIPA 151055Z 06004KT 9999 BKN080 20/13 Q1020 RMK BKN VIS MIN 9999 WIND THR05 /////KT WIND THR23 /////KT A3013 BLU

Čas: 13:23 (11:23 UTC)

Předpověď počasí

Zpráva byla vytvořena před 3 hodinami a 23 minutami, v 08:00 UTC
Předpověď platná od 15 v 09 UTC do 15 v 18 UTC
Severovýchodní vítr 7 kt
Viditelnost 10 km a více
Skoro jasno ve výšce 3000 ft
Oblačno až skoro zataženo ve výšce 6000 ft
Pravděpodobnost 30% :
Dočasný
od 15 v 10 UTC do 15 v 15 UTC
Viditelnost: 4000 m
Oblačno až skoro zataženo ve výšce 4000 ft
déšť, kouřmo

TAF: LIPA 150800Z 1509/1518 05007KT 9999 FEW030 BKN060 PROB30 TEMPO 1510/1515 4000 RA BR BKN040

Stav a předpovědi počasí z více než 4 000 letišť (zprávy METAR a TAF).

Červené a žluté tečky na mapě představují dostupné meteorologické stanice.

Když kurzor umístíte na tečku, zobrazí se název stanice.

Pak kliknutím zobrazíte stav a předpověď počasí.

Chcete-li změnit mapu, kliknutím na zelené tlačítko se znaménkem +mapu přiblížíte, kliknutím na zelené tlačítko se znaménkem – mapu oddálíte a kliknutím na zelené šipky přejdete na sousední mapy.


METAR-TAF: